createdAt,value
2023-11-25T00:03:34.859Z,97881.03
2023-11-25T00:07:34.506Z,97880.60
2023-11-25T00:11:21.808Z,97876.61
2023-11-25T00:14:43.130Z,97880.97
2023-11-25T00:19:17.027Z,97882.51
2023-11-25T00:27:45.287Z,97885.59
2023-11-25T00:31:26.273Z,97878.55
2023-11-25T00:35:08.542Z,97891.39
2023-11-25T00:38:48.845Z,97896.48
2023-11-25T00:42:29.449Z,97900.70
2023-11-25T00:46:11.399Z,97902.52
2023-11-25T00:49:54.022Z,97898.63
2023-11-25T00:54:02.524Z,97902.86
2023-11-25T00:57:37.280Z,97898.86
2023-11-25T01:01:36.784Z,97903.10
2023-11-25T01:04:04.298Z,97901.88
2023-11-25T01:06:33.486Z,97907.26
2023-11-25T01:08:59.995Z,97905.88
2023-11-25T01:11:26.532Z,97902.55
2023-11-25T01:15:08.565Z,97902.56
2023-11-25T01:17:36.546Z,97904.98
2023-11-25T01:20:05.332Z,97905.69
2023-11-25T01:22:36.957Z,97906.65
2023-11-25T01:25:05.140Z,97904.54
2023-11-25T01:30:40.332Z,97899.95
2023-11-25T01:33:49.265Z,97896.69
2023-11-25T01:37:31.222Z,97896.88
2023-11-25T01:41:07.829Z,97896.10
2023-11-25T01:44:54.572Z,97900.23
2023-11-25T01:48:36.337Z,97897.73
2023-11-25T01:52:39.065Z,97897.02
2023-11-25T01:55:52.189Z,97896.08
2023-11-25T01:59:38.024Z,97903.43
2023-11-25T02:03:10.846Z,97908.96
2023-11-25T02:06:50.932Z,97909.32
2023-11-25T02:10:32.314Z,97909.44
2023-11-25T02:14:16.146Z,97908.61
2023-11-25T02:18:05.487Z,97910.23
2023-11-25T02:21:22.428Z,97908.27
2023-11-25T02:25:05.542Z,97917.59
2023-11-25T02:28:40.732Z,97922.86
2023-11-25T02:32:22.507Z,97923.19
2023-11-25T02:35:59.625Z,97926.02
2023-11-25T02:39:38.874Z,97931.52
2023-11-25T02:43:38.420Z,97937.35
2023-11-25T02:47:19.430Z,97939.13
2023-11-25T02:51:01.523Z,97939.20
2023-11-25T02:54:38.202Z,97938.52
2023-11-25T02:57:09.059Z,97942.39
2023-11-25T02:59:38.151Z,97944.13
2023-11-25T03:02:15.120Z,97945.13
2023-11-25T03:04:46.612Z,97949.25
2023-11-25T03:13:55.765Z,97951.03
2023-11-25T03:17:29.181Z,97964.16
2023-11-25T03:21:03.834Z,97968.70
2023-11-25T03:24:48.379Z,97970.78
2023-11-25T03:28:41.178Z,97977.55
2023-11-25T03:31:59.874Z,97974.40
2023-11-25T03:36:00.847Z,97972.80
2023-11-25T03:40:09.071Z,97977.65
2023-11-25T03:44:17.889Z,97979.70
2023-11-25T03:48:07.013Z,97981.55
2023-11-25T03:51:37.491Z,97987.77
2023-11-25T03:55:23.125Z,97986.34
2023-11-25T03:58:56.386Z,97986.42
2023-11-25T04:02:37.533Z,97990.42
2023-11-25T04:06:14.827Z,97999.20
2023-11-25T04:09:52.802Z,97999.02
2023-11-25T04:13:33.628Z,98001.31
2023-11-25T04:17:12.949Z,98005.48
2023-11-25T04:20:54.304Z,98000.89
2023-11-25T04:24:29.836Z,98000.25
2023-11-25T04:28:18.461Z,97999.80
2023-11-25T04:31:51.244Z,98001.50
2023-11-25T04:35:46.214Z,98011.37
2023-11-25T04:39:05.760Z,98017.85
2023-11-25T04:41:33.684Z,98021.44
2023-11-25T04:44:01.428Z,98024.62
2023-11-25T04:46:29.313Z,98024.46
2023-11-25T04:48:57.201Z,98026.47
2023-11-25T04:53:19.884Z,98026.48
2023-11-25T04:56:29.334Z,98026.46
2023-11-25T04:58:57.801Z,98027.33
2023-11-25T05:01:26.995Z,98026.92
2023-11-25T05:03:54.917Z,98029.86
2023-11-25T05:06:22.768Z,98034.56
2023-11-25T05:08:50.573Z,98038.21
2023-11-25T05:11:35.702Z,98043.48
2023-11-25T05:14:03.877Z,98053.05
2023-11-25T05:16:32.160Z,98057.04
2023-11-25T05:19:00.188Z,98058.31
2023-11-25T05:21:27.949Z,98063.86
2023-11-25T05:23:55.908Z,98066.75
2023-11-25T05:26:59.644Z,98068.19
2023-11-25T05:30:18.633Z,98072.16
2023-11-25T05:33:57.303Z,98074.36
2023-11-25T05:37:42.031Z,98076.17
2023-11-25T05:51:52.469Z,98093.83
2023-11-25T07:00:52.359Z,98198.07
2023-11-25T07:03:30.505Z,98198.84
2023-11-25T07:07:18.270Z,98204.73
2023-11-25T07:11:08.660Z,98204.77
2023-11-25T07:13:44.643Z,98208.88
2023-11-25T07:16:19.935Z,98211.72
2023-11-25T07:18:50.998Z,98210.76
2023-11-25T07:21:21.213Z,98217.45
2023-11-25T07:24:36.851Z,98222.34
2023-11-25T07:27:42.891Z,98225.23
2023-11-25T07:34:28.799Z,98228.86
2023-11-25T08:00:02.594Z,98262.30
2023-11-25T08:02:49.175Z,98267.15
2023-11-25T08:05:24.035Z,98269.81
2023-11-25T08:07:56.373Z,98267.41
2023-11-25T08:10:32.901Z,98271.92
2023-11-25T08:13:04.000Z,98267.91
2023-11-25T08:16:57.987Z,98277.73
2023-11-25T08:19:29.998Z,98280.33
2023-11-25T08:48:57.230Z,98309.84
2023-11-25T08:56:52.711Z,98316.90
2023-11-25T09:00:35.091Z,98314.08
2023-11-25T09:03:51.305Z,98318.70
2023-11-25T09:07:18.785Z,98321.20
2023-11-25T09:21:26.444Z,98337.31
2023-11-25T09:24:27.249Z,98345.86
2023-11-25T09:28:00.623Z,98347.25
2023-11-25T09:31:48.739Z,98346.98
2023-11-25T09:34:17.316Z,98345.86
2023-11-25T09:36:46.321Z,98339.67
2023-11-25T09:39:16.276Z,98348.08
2023-11-25T09:41:44.866Z,98353.81
2023-11-25T09:44:15.628Z,98356.73
2023-11-25T09:46:45.168Z,98362.34
2023-11-25T09:49:13.968Z,98362.36
2023-11-25T09:51:45.388Z,98360.80
2023-11-25T09:55:40.221Z,98361.21
2023-11-25T09:58:08.713Z,98365.23
2023-11-25T10:00:41.656Z,98364.02
2023-11-25T10:03:13.756Z,98367.48
2023-11-25T10:05:42.388Z,98367.34
2023-11-25T10:08:11.085Z,98370.98
2023-11-25T10:10:40.289Z,98369.05
2023-11-25T10:13:15.727Z,98371.50
2023-11-25T10:15:47.965Z,98366.09
2023-11-25T10:18:16.462Z,98364.80
2023-11-25T10:20:47.133Z,98369.71
2023-11-25T10:23:28.212Z,98366.09
2023-11-25T10:26:00.426Z,98371.15
2023-11-25T10:28:38.374Z,98374.59
2023-11-25T10:31:09.478Z,98369.77
2023-11-25T10:34:44.441Z,98375.17
2023-11-25T10:38:29.090Z,98381.22
2023-11-25T10:41:02.886Z,98377.88
2023-11-25T10:43:35.604Z,98381.08
2023-11-25T10:46:11.297Z,98386.80
2023-11-25T10:48:40.523Z,98386.32
2023-11-25T10:51:09.963Z,98387.69
2023-11-25T10:53:42.650Z,98398.10
2023-11-25T10:56:11.163Z,98400.63
2023-11-25T10:58:39.807Z,98402.81
2023-11-25T11:01:09.099Z,98403.91
2023-11-25T11:03:46.375Z,98406.90
2023-11-25T11:06:23.891Z,98403.89
2023-11-25T11:08:56.314Z,98405.41
2023-11-25T11:11:33.132Z,98403.52
2023-11-25T11:14:12.200Z,98405.92
2023-11-25T11:17:05.134Z,98402.34
2023-11-25T11:19:42.427Z,98407.57
2023-11-25T11:22:13.255Z,98408.05
2023-11-25T11:24:52.652Z,98407.64
2023-11-25T11:27:56.871Z,98407.11
2023-11-25T11:31:00.568Z,98408.23
2023-11-25T11:33:32.833Z,98410.92
2023-11-25T11:36:01.720Z,98415.88
2023-11-25T11:38:34.574Z,98417.74
2023-11-25T11:41:10.205Z,98415.64
2023-11-25T11:45:28.725Z,98418.89
2023-11-25T11:47:57.843Z,98431.73
2023-11-25T11:50:33.841Z,98434.91
2023-11-25T11:53:01.819Z,98437.05
2023-11-25T12:13:30.545Z,98450.45
2023-11-25T12:16:01.170Z,98449.73
2023-11-25T12:18:31.205Z,98448.46
2023-11-25T12:21:02.605Z,98446.31
2023-11-25T12:23:41.246Z,98440.52
2023-11-25T12:28:46.314Z,98446.48
2023-11-25T12:31:14.349Z,98454.05
2023-11-25T12:33:42.363Z,98452.05
2023-11-25T12:36:10.256Z,98454.54
2023-11-25T12:38:39.108Z,98456.65
2023-11-25T12:41:15.032Z,98458.44
2023-11-25T12:52:42.196Z,98462.84
2023-11-25T12:55:13.542Z,98462.52
2023-11-25T12:57:42.759Z,98463.94
2023-11-25T13:00:12.441Z,98462.09
2023-11-25T13:02:47.122Z,98466.56
2023-11-25T13:05:25.806Z,98468.42
2023-11-25T13:07:53.983Z,98470.48
2023-11-25T13:10:22.349Z,98473.42
2023-11-25T13:12:50.490Z,98477.34
2023-11-25T13:15:20.138Z,98482.45
2023-11-25T13:17:48.925Z,98480.48
2023-11-25T13:20:17.523Z,98486.13
2023-11-25T13:22:45.923Z,98490.27
2023-11-25T13:25:15.080Z,98490.01
2023-11-25T13:27:43.478Z,98491.34
2023-11-25T13:30:12.132Z,98492.55
2023-11-25T13:32:40.303Z,98494.61
2023-11-25T13:35:08.530Z,98497.98
2023-11-25T13:37:37.973Z,98494.98
2023-11-25T13:40:08.683Z,98495.92
2023-11-25T13:42:37.515Z,98501.64
2023-11-25T13:45:15.734Z,98505.89
2023-11-25T13:47:46.636Z,98511.46
2023-11-25T13:50:52.015Z,98520.27
2023-11-25T13:53:22.557Z,98522.42
2023-11-25T13:55:50.411Z,98523.82
2023-11-25T14:10:32.939Z,98528.83
2023-11-25T14:13:22.669Z,98532.29
2023-11-25T14:17:00.378Z,98532.79
2023-11-25T14:21:04.088Z,98537.92
2023-11-25T14:23:50.234Z,98538.67
2023-11-25T14:27:28.697Z,98542.33
2023-11-25T14:31:09.187Z,98543.27
2023-11-25T14:35:12.122Z,98544.94
2023-11-25T14:37:41.870Z,98546.89
2023-11-25T14:40:21.543Z,98543.30
2023-11-25T14:42:48.211Z,98541.70
2023-11-25T14:45:15.302Z,98545.22
2023-11-25T14:47:44.466Z,98548.40
2023-11-25T14:51:16.515Z,98548.69
2023-11-25T14:54:52.293Z,98555.07
2023-11-25T14:58:53.971Z,98557.62
2023-11-25T15:02:22.615Z,98558.01
2023-11-25T15:05:43.475Z,98559.85
2023-11-25T15:09:42.595Z,98552.03
2023-11-25T15:13:25.762Z,98558.20
2023-11-25T15:16:39.496Z,98565.67
2023-11-25T15:20:37.517Z,98565.88
2023-11-25T15:34:23.483Z,98581.10
2023-11-25T15:37:11.426Z,98584.27
2023-11-25T15:40:57.928Z,98585.08
2023-11-25T15:48:24.710Z,98595.34
2023-11-25T15:50:51.519Z,98589.32
2023-11-25T15:53:18.224Z,98595.02
2023-11-25T16:03:29.223Z,98603.91
2023-11-25T16:06:40.045Z,98609.08
2023-11-25T16:10:20.871Z,98611.30
2023-11-25T16:12:48.869Z,98613.16
2023-11-25T16:15:17.342Z,98613.63
2023-11-25T16:17:45.603Z,98615.73
2023-11-25T16:20:17.184Z,98614.63
2023-11-25T16:22:54.613Z,98620.23
2023-11-25T16:25:40.936Z,98622.45
2023-11-25T16:28:09.786Z,98625.35
2023-11-25T16:30:41.083Z,98626.23
2023-11-25T16:33:10.468Z,98625.92
2023-11-25T16:35:39.497Z,98625.36
2023-11-25T16:41:07.744Z,98628.68
2023-11-25T16:44:26.260Z,98631.73
2023-11-25T16:46:54.392Z,98633.81
2023-11-25T16:49:22.972Z,98636.05
2023-11-25T16:51:58.017Z,98641.45
2023-11-25T16:54:26.693Z,98640.56
2023-11-25T16:56:56.053Z,98644.48
2023-11-25T17:01:04.846Z,98642.67
2023-11-25T17:03:35.342Z,98638.19
2023-11-25T17:06:26.183Z,98638.38
2023-11-25T17:08:53.549Z,98637.83
2023-11-25T17:11:20.345Z,98637.30
2023-11-25T17:14:32.369Z,98635.51
2023-11-25T17:17:04.515Z,98641.71
2023-11-25T17:19:42.683Z,98642.96
2023-11-25T17:39:20.835Z,98644.68
2023-11-25T17:43:08.565Z,98640.36
2023-11-25T17:45:40.342Z,98643.58
2023-11-25T17:48:09.645Z,98644.13
2023-11-25T17:50:41.379Z,98650.30
2023-11-25T17:53:53.426Z,98652.32
2023-11-25T17:58:11.462Z,98655.66
2023-11-25T18:01:10.584Z,98657.39
2023-11-25T18:03:50.643Z,98661.13
2023-11-25T18:06:26.003Z,98663.36
2023-11-25T18:12:41.931Z,98661.27
2023-11-25T18:16:15.011Z,98660.89
2023-11-25T18:19:43.493Z,98660.50
2023-11-25T18:22:54.469Z,98660.86
2023-11-25T18:25:22.810Z,98664.42
2023-11-25T18:27:51.709Z,98663.05
2023-11-25T18:30:21.193Z,98662.25
2023-11-25T18:32:54.632Z,98661.39
2023-11-25T18:35:25.639Z,98661.13
2023-11-25T18:37:54.730Z,98658.10
2023-11-25T18:40:26.181Z,98660.38
2023-11-25T18:42:54.692Z,98660.27
2023-11-25T18:45:28.723Z,98661.39
2023-11-25T18:49:33.059Z,98657.75
2023-11-25T18:52:40.983Z,98659.29
2023-11-25T18:56:03.405Z,98660.95
2023-11-25T19:10:10.470Z,98676.85
2023-11-25T19:13:10.315Z,98684.27
2023-11-25T19:15:41.386Z,98688.52
2023-11-25T19:18:11.501Z,98685.93
2023-11-25T19:20:39.799Z,98686.89
2023-11-25T19:23:07.767Z,98681.19
2023-11-25T19:25:36.362Z,98687.73
2023-11-25T19:28:04.691Z,98689.76
2023-11-25T19:30:32.673Z,98695.02
2023-11-25T19:33:00.751Z,98691.11
2023-11-25T19:35:28.783Z,98692.61
2023-11-25T19:38:06.634Z,98692.57
2023-11-25T19:40:34.485Z,98700.20
2023-11-25T19:43:02.900Z,98702.55
2023-11-25T19:45:31.880Z,98704.73
2023-11-25T19:47:59.841Z,98707.42
2023-11-25T19:50:27.806Z,98703.10
2023-11-25T19:52:57.709Z,98707.13
2023-11-25T19:55:25.541Z,98707.96
2023-11-25T19:57:54.017Z,98710.83
2023-11-25T20:00:25.184Z,98704.82
2023-11-25T20:02:53.929Z,98707.74
2023-11-25T20:05:25.829Z,98711.70
2023-11-25T20:07:53.876Z,98713.41
2023-11-25T20:10:23.432Z,98715.67
2023-11-25T20:12:51.468Z,98720.46
2023-11-25T20:16:32.773Z,98716.98
2023-11-25T20:19:00.951Z,98720.18
2023-11-25T20:21:29.282Z,98718.46
2023-11-25T20:23:59.740Z,98722.90
2023-11-25T20:26:27.576Z,98726.98
2023-11-25T20:28:55.417Z,98730.11
2023-11-25T20:31:24.308Z,98731.25
2023-11-25T20:33:52.668Z,98731.55
2023-11-25T20:36:20.528Z,98735.99
2023-11-25T20:38:48.485Z,98743.12
2023-11-25T20:41:16.310Z,98742.19
2023-11-25T20:43:44.153Z,98743.39
2023-11-25T20:46:12.245Z,98742.63
2023-11-25T20:48:40.205Z,98740.73
2023-11-25T20:51:10.917Z,98741.66
2023-11-25T20:53:41.012Z,98744.43
2023-11-25T20:56:09.089Z,98747.80
2023-11-25T20:58:37.108Z,98743.73
2023-11-25T21:01:07.559Z,98742.69
2023-11-25T21:03:35.738Z,98743.64
2023-11-25T21:06:04.277Z,98744.48
2023-11-25T21:08:34.231Z,98748.79
2023-11-25T21:11:02.278Z,98753.61
2023-11-25T21:16:53.957Z,98760.07
2023-11-25T21:19:22.314Z,98756.31
2023-11-25T21:21:50.995Z,98759.90
2023-11-25T21:24:18.754Z,98763.52
2023-11-25T21:26:47.114Z,98755.83
2023-11-25T21:29:15.205Z,98762.04
2023-11-25T21:31:47.282Z,98763.04
2023-11-25T21:34:15.304Z,98763.98
2023-11-25T21:36:46.162Z,98762.92
2023-11-25T21:39:16.104Z,98760.86
2023-11-25T21:41:44.121Z,98759.77
2023-11-25T21:44:12.264Z,98761.11
2023-11-25T21:46:40.131Z,98766.73
2023-11-25T21:49:08.300Z,98771.66
2023-11-25T21:51:36.292Z,98779.46
2023-11-25T21:54:04.378Z,98784.77
2023-11-25T21:56:32.335Z,98786.55
2023-11-25T21:59:00.384Z,98787.71
2023-11-25T22:01:28.317Z,98793.05
2023-11-25T22:03:59.363Z,98790.64
2023-11-25T22:06:28.464Z,98792.13
2023-11-25T22:08:59.682Z,98794.11
2023-11-25T22:11:27.997Z,98793.93
2023-11-25T22:13:56.900Z,98796.16
2023-11-25T22:16:24.833Z,98801.38
2023-11-25T22:18:52.942Z,98803.33
2023-11-25T22:21:22.351Z,98807.96
2023-11-25T22:23:51.244Z,98809.90
2023-11-25T22:26:42.556Z,98810.21
2023-11-25T22:29:10.713Z,98811.05
2023-11-25T22:31:38.518Z,98820.88
2023-11-25T22:34:08.358Z,98822.21
2023-11-25T22:36:36.325Z,98823.98
2023-11-25T22:39:05.227Z,98825.08
2023-11-25T22:41:34.465Z,98825.98
2023-11-25T22:44:02.478Z,98824.23
2023-11-25T22:46:30.330Z,98825.59
2023-11-25T22:48:58.290Z,98828.00
2023-11-25T22:51:27.653Z,98829.46
2023-11-25T22:53:56.759Z,98827.04
2023-11-25T22:56:24.621Z,98826.36
2023-11-25T22:58:52.512Z,98828.55
2023-11-25T23:01:28.874Z,98828.20
2023-11-25T23:03:57.831Z,98829.89
2023-11-25T23:06:25.878Z,98829.70
2023-11-25T23:08:54.262Z,98831.73
2023-11-25T23:11:22.362Z,98833.85
2023-11-25T23:13:50.291Z,98836.73
2023-11-25T23:16:18.224Z,98840.49
2023-11-25T23:18:46.066Z,98838.27
2023-11-25T23:21:13.900Z,98840.07
2023-11-25T23:23:48.063Z,98841.31
2023-11-25T23:26:16.999Z,98844.50
2023-11-25T23:28:46.566Z,98848.48
2023-11-25T23:31:14.429Z,98851.06
2023-11-25T23:33:42.364Z,98856.53
2023-11-25T23:36:10.715Z,98859.98
2023-11-25T23:38:38.525Z,98863.03
2023-11-25T23:41:06.487Z,98861.66
2023-11-25T23:43:34.386Z,98864.39
2023-11-25T23:46:02.469Z,98865.66
2023-11-25T23:48:30.890Z,98862.52
2023-11-25T23:50:58.941Z,98862.30
2023-11-25T23:53:26.932Z,98865.30
2023-11-25T23:55:54.771Z,98869.15
2023-11-25T23:58:23.355Z,98867.39
